Salem, OR

4:53 AM PDT on August 28, 2014 (GMT -0700)
Corvallis Municipal | Change Station
CLOSE
Current Station
Airport
Location: Corvallis,
Elevation: 246 ft
Nearby Weather Stations

Elev 246 ft 44.50 °N, 123.29 °W | Updated 18 minutes ago

Clear
Clear
59 °F
Feels Like 59 °F
N
8
Wind Variable Wind from NW

Today
High -- | Low -- °F
--% Chance of Precip.
Yesterday
High -- | Low -- °F
Precip. -- in
6:29 AM 7:55 PM
Waxing Crescent, 8% visible
Pressure 30.09 in
Visibility 10.0 miles
Clouds Clear
Dew Point 54 °F
Humidity 82%
Rainfall 0.00 in
Snow Depth Not available.
UV 0 out of 12
Pollen 3.60 out of 12
Air Quality Not available.
Flu Activity Not available.
METAR KCVO 281135Z 31007KT 10SM CLR 15/12 A3009 RMK AO1

More Conditions Fewer Conditions

Pressure 30.09 in
Visibility 10.0 miles
Clouds Clear
Dew Point 54 °F
Humidity 82%
Rainfall 0.00 in
Snow Depth Not available.
UV 0 out of 12
Pollen 3.60 out of 12
Air Quality Not available.
Flu Activity Not available.
METAR KCVO 281135Z 31007KT 10SM CLR 15/12 A3009 RMK AO1

More Conditions Fewer Conditions

10-Day Weather Forecast

Almanac

Astronomy

Aug. 28, 2014 Rise Set
Actual Time 6:29 AM PDT 7:55 PM PDT
Civil Twilight 5:58 AM PDT 8:26 PM PDT
Nautical Twilight 5:21 AM PDT 9:03 PM PDT
Astronomical Twilight 4:42 AM PDT 9:42 PM PDT
Moon 9:36 AM PDT 9:12 PM PDT
Length of Visible Light 14h 27m
Length of Day
13h 26m
Tomorrow will be 2m 58s shorter.
Waxing Crescent, 8% of the Moon is Illuminated
Today
Waxing Crescent
Sep 2
First Quarter
Sep 8
Full
Sep 15
Last Quarter
Sep 24
New

Today's Extremes

State Highs State Lows

Community

WunderPhotos

Upload Photos

1,747,929 photos uploaded!

Nearby

Snow Depth

Station Depth Elevation
Seine Creek 0 in 2000 ft
Daly Lake 0 in 3600 ft
Peavine Ridge 3 in 3500 ft
Clackamas Lake 0 in 3400 ft
Santiam Junction 0 in 3750 ft

Earthquake Activity

City Distance Mag. Time & Date
No recent earthquake activity has been reported nearby.
Minimum magnitude displayed is 2.5.

Coastal Water Temperatures

Place Temperature
No Stations Reporting

Nearby Weather Stations